createdAt,value
2023-04-28T00:00:35.442Z,1016.37
2023-04-28T00:01:35.357Z,1016.39
2023-04-28T00:02:35.417Z,1016.39
2023-04-28T00:03:35.358Z,1016.38
2023-04-28T00:04:35.424Z,1016.42
2023-04-28T00:05:35.286Z,1016.45
2023-04-28T00:06:36.040Z,1016.43
2023-04-28T00:07:35.138Z,1016.39
2023-04-28T00:08:35.165Z,1016.37
2023-04-28T00:09:35.068Z,1016.37
2023-04-28T00:10:35.022Z,1016.40
2023-04-28T00:11:35.036Z,1016.40
2023-04-28T00:12:34.944Z,1016.38
2023-04-28T00:13:34.916Z,1016.37
2023-04-28T00:14:34.875Z,1016.36
2023-04-28T00:15:34.834Z,1016.33
2023-04-28T00:16:34.807Z,1016.34
2023-04-28T00:17:34.944Z,1016.33
2023-04-28T00:18:34.720Z,1016.29
2023-04-28T00:19:34.699Z,1016.30
2023-04-28T00:20:34.652Z,1016.27
2023-04-28T00:21:34.672Z,1016.24
2023-04-28T00:22:34.626Z,1016.24
2023-04-28T00:23:34.544Z,1016.26
2023-04-28T00:24:34.501Z,1016.22
2023-04-28T00:25:34.465Z,1016.21
2023-04-28T00:26:34.492Z,1016.22
2023-04-28T00:27:34.402Z,1016.19
2023-04-28T00:28:35.100Z,1016.19
2023-04-28T00:29:34.319Z,1016.17
2023-04-28T00:30:34.294Z,1016.16
2023-04-28T00:31:34.285Z,1016.16
2023-04-28T00:32:34.282Z,1016.15
2023-04-28T00:33:34.176Z,1016.13
2023-04-28T00:34:34.135Z,1016.15
2023-04-28T00:35:34.088Z,1016.16
2023-04-28T00:36:34.055Z,1016.13
2023-04-28T00:37:34.016Z,1016.11
2023-04-28T00:38:34.040Z,1016.10
2023-04-28T00:39:33.946Z,1016.08
2023-04-28T00:40:33.977Z,1016.09
2023-04-28T00:41:33.872Z,1016.08
2023-04-28T00:42:33.830Z,1016.12
2023-04-28T00:43:33.795Z,1016.10
2023-04-28T00:44:33.755Z,1016.06
2023-04-28T00:45:33.815Z,1016.08
2023-04-28T00:46:33.689Z,1016.08
2023-04-28T00:47:33.660Z,1016.03
2023-04-28T00:48:33.604Z,1016.01
2023-04-28T00:49:33.584Z,1015.99
2023-04-28T00:50:33.535Z,1015.99
2023-04-28T00:51:33.580Z,1015.98
2023-04-28T00:52:33.461Z,1015.95
2023-04-28T00:53:33.427Z,1015.98
2023-04-28T00:54:33.411Z,1015.96
2023-04-28T00:55:33.351Z,1015.93
2023-04-28T00:56:33.326Z,1015.94
2023-04-28T00:57:33.354Z,1015.91
2023-04-28T00:58:33.246Z,1015.93
2023-04-28T00:59:33.228Z,1015.93
2023-04-28T01:00:33.234Z,1015.89
2023-04-28T01:01:33.344Z,1015.87
2023-04-28T01:02:33.170Z,1015.87
2023-04-28T01:03:33.163Z,1015.81
2023-04-28T01:04:33.074Z,1015.83
2023-04-28T01:05:32.980Z,1015.82
2023-04-28T01:06:33.025Z,1015.81
2023-04-28T01:07:32.918Z,1015.78
2023-04-28T01:08:32.883Z,1015.78
2023-04-28T01:09:32.835Z,1015.78
2023-04-28T01:10:32.798Z,1015.80
2023-04-28T01:11:32.816Z,1015.77
2023-04-28T01:12:32.730Z,1015.76
2023-04-28T01:13:32.687Z,1015.77
2023-04-28T01:14:32.650Z,1015.76
2023-04-28T01:15:32.623Z,1015.74
2023-04-28T01:16:32.791Z,1015.77
2023-04-28T01:17:32.592Z,1015.78
2023-04-28T01:18:32.505Z,1015.78
2023-04-28T01:19:32.474Z,1015.75
2023-04-28T01:20:32.456Z,1015.77
2023-04-28T01:21:32.433Z,1015.78
2023-04-28T01:22:32.423Z,1015.75
2023-04-28T01:23:32.332Z,1015.74
2023-04-28T01:24:32.290Z,1015.75
2023-04-28T01:25:32.238Z,1015.75
2023-04-28T01:26:32.222Z,1015.72
2023-04-28T01:27:32.194Z,1015.70
2023-04-28T01:28:32.221Z,1015.72
2023-04-28T01:29:32.107Z,1015.70
2023-04-28T01:30:32.072Z,1015.69
2023-04-28T01:31:32.084Z,1015.67
2023-04-28T01:32:32.022Z,1015.71
2023-04-28T01:33:31.973Z,1015.74
2023-04-28T01:34:31.985Z,1015.70
2023-04-28T01:35:31.884Z,1015.68
2023-04-28T01:36:31.852Z,1015.66
2023-04-28T01:37:31.814Z,1015.68
2023-04-28T01:38:31.768Z,1015.68
2023-04-28T01:39:31.732Z,1015.66
2023-04-28T01:40:31.801Z,1015.68
2023-04-28T01:41:31.656Z,1015.70
2023-04-28T01:42:31.627Z,1015.67
2023-04-28T01:43:31.589Z,1015.64
2023-04-28T01:44:31.704Z,1015.64
2023-04-28T01:45:31.513Z,1015.63
2023-04-28T01:46:31.653Z,1015.62
2023-04-28T01:47:31.507Z,1015.65
2023-04-28T01:48:31.402Z,1015.61
2023-04-28T01:49:31.441Z,1015.63
2023-04-28T01:50:31.350Z,1015.64
2023-04-28T01:51:31.290Z,1015.63
2023-04-28T01:52:31.256Z,1015.63
2023-04-28T01:53:31.219Z,1015.60
2023-04-28T01:54:31.247Z,1015.57
2023-04-28T01:55:31.153Z,1015.56
2023-04-28T01:56:31.131Z,1015.56
2023-04-28T01:57:31.127Z,1015.56
2023-04-28T01:58:31.033Z,1015.52
2023-04-28T01:59:30.996Z,1015.53
2023-04-28T02:00:31.012Z,1015.52
2023-04-28T02:01:30.968Z,1015.55
2023-04-28T02:02:30.966Z,1015.54
2023-04-28T02:03:31.062Z,1015.51
2023-04-28T02:04:30.895Z,1015.51
2023-04-28T02:05:30.841Z,1015.44
2023-04-28T02:06:30.733Z,1015.47
2023-04-28T02:07:30.709Z,1015.48
2023-04-28T02:08:30.679Z,1015.47
2023-04-28T02:09:30.622Z,1015.49
2023-04-28T02:10:30.605Z,1015.44
2023-04-28T02:11:30.610Z,1015.46
2023-04-28T02:12:30.549Z,1015.39
2023-04-28T02:13:30.473Z,1015.41
2023-04-28T02:14:30.479Z,1015.39
2023-04-28T02:15:30.415Z,1015.36
2023-04-28T02:16:30.526Z,1015.40
2023-04-28T02:17:30.350Z,1015.39
2023-04-28T02:18:30.295Z,1015.38
2023-04-28T02:19:30.261Z,1015.40
2023-04-28T02:20:33.071Z,1015.37
2023-04-28T02:21:30.187Z,1015.33
2023-04-28T02:22:30.216Z,1015.35
2023-04-28T02:23:30.115Z,1015.35
2023-04-28T02:24:30.073Z,1015.33
2023-04-28T02:25:30.032Z,1015.32
2023-04-28T02:26:29.992Z,1015.35
2023-04-28T02:27:29.978Z,1015.35
2023-04-28T02:28:29.994Z,1015.33
2023-04-28T02:29:29.892Z,1015.33
2023-04-28T02:30:29.841Z,1015.35
2023-04-28T02:31:29.850Z,1015.34
2023-04-28T02:32:29.920Z,1015.31
2023-04-28T02:33:29.740Z,1015.29
2023-04-28T02:34:29.762Z,1015.28
2023-04-28T02:35:29.670Z,1015.27
2023-04-28T02:36:29.640Z,1015.27
2023-04-28T02:37:29.652Z,1015.27
2023-04-28T02:38:29.558Z,1015.22
2023-04-28T02:39:29.518Z,1015.25
2023-04-28T02:40:29.538Z,1015.23
2023-04-28T02:41:29.460Z,1015.24
2023-04-28T02:42:29.408Z,1015.19
2023-04-28T02:43:29.377Z,1015.20
2023-04-28T02:44:29.336Z,1015.19
2023-04-28T02:45:29.326Z,1015.21
2023-04-28T02:46:29.420Z,1015.15
2023-04-28T02:47:29.312Z,1015.16
2023-04-28T02:48:29.200Z,1015.19
2023-04-28T02:49:29.172Z,1015.16
2023-04-28T02:50:29.117Z,1015.18
2023-04-28T02:51:29.082Z,1015.14
2023-04-28T02:52:29.099Z,1015.17
2023-04-28T02:53:29.026Z,1015.14
2023-04-28T02:54:28.979Z,1015.15
2023-04-28T02:55:28.937Z,1015.15
2023-04-28T02:56:28.902Z,1015.17
2023-04-28T02:57:28.917Z,1015.11
2023-04-28T02:58:28.823Z,1015.16
2023-04-28T02:59:28.790Z,1015.12
2023-04-28T03:00:28.991Z,1015.13
2023-04-28T03:01:28.766Z,1015.12
2023-04-28T03:02:28.868Z,1015.11
2023-04-28T03:03:28.792Z,1015.14
2023-04-28T03:04:28.819Z,1015.10
2023-04-28T03:05:28.582Z,1015.10
2023-04-28T03:06:28.547Z,1015.09
2023-04-28T03:07:28.507Z,1015.11
2023-04-28T03:08:28.516Z,1015.12
2023-04-28T03:09:28.443Z,1015.09
2023-04-28T03:10:28.392Z,1015.13
2023-04-28T03:11:28.388Z,1015.11
2023-04-28T03:12:28.370Z,1015.11
2023-04-28T03:13:28.356Z,1015.11
2023-04-28T03:14:28.244Z,1015.08
2023-04-28T03:15:28.204Z,1015.09
2023-04-28T03:16:28.210Z,1015.03
2023-04-28T03:17:28.160Z,1015.04
2023-04-28T03:18:28.106Z,1015.03
2023-04-28T03:19:28.128Z,1015.03
2023-04-28T03:20:28.036Z,1015.03
2023-04-28T03:21:28.078Z,1015.02
2023-04-28T03:22:27.957Z,1015.01
2023-04-28T03:23:27.923Z,1015.04
2023-04-28T03:24:27.917Z,1015.04
2023-04-28T03:25:27.844Z,1015.02
2023-04-28T03:26:27.807Z,1015.05
2023-04-28T03:27:27.841Z,1015.02
2023-04-28T03:28:27.747Z,1015.03
2023-04-28T03:29:27.711Z,1014.98
2023-04-28T03:30:27.668Z,1015.00
2023-04-28T03:31:27.678Z,1014.99
2023-04-28T03:32:27.768Z,1014.98
2023-04-28T03:33:27.554Z,1014.95
2023-04-28T03:34:27.520Z,1014.95
2023-04-28T03:35:27.480Z,1014.96
2023-04-28T03:36:27.451Z,1014.98
2023-04-28T03:37:27.426Z,1014.97
2023-04-28T03:38:27.445Z,1014.92
2023-04-28T03:39:27.338Z,1014.95
2023-04-28T03:40:27.311Z,1014.90
2023-04-28T03:41:27.256Z,1014.88
2023-04-28T03:42:27.253Z,1014.88
2023-04-28T03:43:27.196Z,1014.88
2023-04-28T03:44:27.236Z,1014.87
2023-04-28T03:45:27.116Z,1014.89
2023-04-28T03:46:27.169Z,1014.84
2023-04-28T03:47:27.056Z,1014.83
2023-04-28T03:48:27.121Z,1014.81
2023-04-28T03:49:26.988Z,1014.84
2023-04-28T03:50:26.999Z,1014.81
2023-04-28T03:51:26.900Z,1014.83
2023-04-28T03:52:26.915Z,1014.77
2023-04-28T03:53:26.834Z,1014.76
2023-04-28T03:54:26.805Z,1014.75
2023-04-28T03:55:26.775Z,1014.75
2023-04-28T03:56:26.783Z,1014.72
2023-04-28T03:57:26.722Z,1014.72
2023-04-28T03:58:26.650Z,1014.70
2023-04-28T03:59:26.614Z,1014.65
2023-04-28T04:00:26.575Z,1014.64
2023-04-28T04:01:26.551Z,1014.70
2023-04-28T04:02:26.666Z,1014.66
2023-04-28T04:03:26.928Z,1014.68
2023-04-28T04:04:27.027Z,1014.70
2023-04-28T04:05:26.450Z,1014.65
2023-04-28T04:06:26.357Z,1014.69
2023-04-28T04:07:26.317Z,1014.71
2023-04-28T04:08:33.591Z,1014.66
2023-04-28T04:09:26.259Z,1014.65
2023-04-28T04:10:26.237Z,1014.65
2023-04-28T04:11:26.174Z,1014.62
2023-04-28T04:12:26.187Z,1014.62
2023-04-28T04:13:26.100Z,1014.63
2023-04-28T04:14:26.133Z,1014.61
2023-04-28T04:15:26.031Z,1014.63
2023-04-28T04:16:26.081Z,1014.67
2023-04-28T04:17:25.972Z,1014.65
2023-04-28T04:18:25.933Z,1014.64
2023-04-28T04:19:25.885Z,1014.67
2023-04-28T04:20:25.908Z,1014.63
2023-04-28T04:21:25.814Z,1014.63
2023-04-28T04:22:25.781Z,1014.66
2023-04-28T04:23:25.740Z,1014.68
2023-04-28T04:24:25.785Z,1014.66
2023-04-28T04:25:25.672Z,1014.66
2023-04-28T04:26:25.638Z,1014.63
2023-04-28T04:27:25.613Z,1014.65
2023-04-28T04:28:25.573Z,1014.66
2023-04-28T04:29:25.601Z,1014.65
2023-04-28T04:30:25.535Z,1014.66
2023-04-28T04:31:25.501Z,1014.69
2023-04-28T04:32:25.441Z,1014.66
2023-04-28T04:33:26.105Z,1014.66
2023-04-28T04:34:25.770Z,1014.60
2023-04-28T04:35:25.320Z,1014.63
2023-04-28T04:36:25.290Z,1014.61
2023-04-28T04:37:25.384Z,1014.61
2023-04-28T04:38:26.103Z,1014.58
2023-04-28T04:39:25.180Z,1014.55
2023-04-28T04:40:25.194Z,1014.57
2023-04-28T04:41:25.107Z,1014.54
2023-04-28T04:42:26.034Z,1014.53
2023-04-28T04:43:25.041Z,1014.57
2023-04-28T04:44:25.005Z,1014.58
2023-04-28T04:45:24.959Z,1014.55
2023-04-28T04:46:25.018Z,1014.55
2023-04-28T04:47:24.922Z,1014.61
2023-04-28T04:48:24.870Z,1014.54
2023-04-28T04:49:24.816Z,1014.54
2023-04-28T04:50:24.793Z,1014.54
2023-04-28T04:51:24.757Z,1014.53
2023-04-28T04:52:24.776Z,1014.50
2023-04-28T04:53:24.677Z,1014.45
2023-04-28T04:54:24.669Z,1014.48
2023-04-28T04:55:24.622Z,1014.50
2023-04-28T04:56:24.601Z,1014.48
2023-04-28T04:57:24.545Z,1014.47
2023-04-28T04:58:24.593Z,1014.48
2023-04-28T04:59:25.113Z,1014.48
2023-04-28T05:00:24.452Z,1014.44
2023-04-28T05:01:24.456Z,1014.42
2023-04-28T05:02:24.383Z,1014.45
2023-04-28T05:03:24.475Z,1014.46
2023-04-28T05:04:24.495Z,1014.44
2023-04-28T05:05:24.357Z,1014.43
2023-04-28T05:06:24.236Z,1014.46
2023-04-28T05:07:24.204Z,1014.42
2023-04-28T05:08:24.169Z,1014.43
2023-04-28T05:09:24.146Z,1014.42
2023-04-28T05:10:24.156Z,1014.44
2023-04-28T05:11:24.071Z,1014.40
2023-04-28T05:12:24.035Z,1014.38
2023-04-28T05:13:23.996Z,1014.39
2023-04-28T05:14:23.964Z,1014.38
2023-04-28T05:15:24.610Z,1014.37
2023-04-28T05:16:23.976Z,1014.38
2023-04-28T05:17:23.864Z,1014.35
2023-04-28T05:18:23.844Z,1014.35
2023-04-28T05:19:23.797Z,1014.34
2023-04-28T05:20:23.750Z,1014.37
2023-04-28T05:21:23.789Z,1014.33
2023-04-28T05:22:23.692Z,1014.32
2023-04-28T05:23:23.665Z,1014.32
2023-04-28T05:24:23.627Z,1014.35
2023-04-28T05:25:23.607Z,1014.31
2023-04-28T05:26:23.627Z,1014.33
2023-04-28T05:27:23.509Z,1014.32
2023-04-28T05:28:23.484Z,1014.29
2023-04-28T05:29:23.453Z,1014.27
2023-04-28T05:30:23.433Z,1014.29
2023-04-28T05:31:23.476Z,1014.27
2023-04-28T05:32:23.474Z,1014.29
2023-04-28T05:33:23.318Z,1014.27
2023-04-28T05:34:23.275Z,1014.27
2023-04-28T05:35:23.249Z,1014.19
2023-04-28T05:36:23.207Z,1014.17
2023-04-28T05:37:23.223Z,1014.24
2023-04-28T05:38:23.480Z,1014.17
2023-04-28T05:39:23.098Z,1014.18
2023-04-28T05:40:23.081Z,1014.20
2023-04-28T05:41:23.038Z,1014.21
2023-04-28T05:42:23.001Z,1014.22
2023-04-28T05:43:23.042Z,1014.19
2023-04-28T05:44:22.939Z,1014.17
2023-04-28T05:45:22.908Z,1014.20
2023-04-28T05:47:22.866Z,1014.14
2023-04-28T05:48:22.801Z,1014.12
2023-04-28T05:49:22.811Z,1014.14
2023-04-28T05:50:22.727Z,1014.10
2023-04-28T05:51:22.694Z,1014.11
2023-04-28T05:52:22.657Z,1014.08
2023-04-28T05:53:22.647Z,1014.10
2023-04-28T05:54:22.643Z,1014.11
2023-04-28T05:55:22.560Z,1014.12
2023-04-28T05:56:22.520Z,1014.04
2023-04-28T05:57:22.492Z,1014.07
2023-04-28T05:58:22.461Z,1014.06
2023-04-28T05:59:22.429Z,1014.06
2023-04-28T06:00:22.474Z,1014.01
2023-04-28T06:01:22.360Z,1014.03
2023-04-28T06:02:23.246Z,1014.05
2023-04-28T06:03:22.460Z,1014.00
2023-04-28T06:04:22.649Z,1013.98
2023-04-28T06:05:22.633Z,1014.01
2023-04-28T06:06:22.292Z,1013.96
2023-04-28T06:07:22.147Z,1013.94
2023-04-28T06:08:22.112Z,1013.96
2023-04-28T06:09:22.246Z,1013.96
2023-04-28T06:10:22.081Z,1013.92
2023-04-28T06:11:22.009Z,1013.96
2023-04-28T06:12:22.039Z,1013.95
2023-04-28T06:13:22.131Z,1013.90
2023-04-28T06:14:21.924Z,1013.92
2023-04-28T06:15:21.884Z,1013.91
2023-04-28T06:16:21.916Z,1013.97
2023-04-28T06:17:21.867Z,1013.95
2023-04-28T06:18:21.777Z,1013.98
2023-04-28T06:19:21.844Z,1014.02
2023-04-28T06:20:21.723Z,1013.92
2023-04-28T06:21:21.722Z,1013.91
2023-04-28T06:22:21.677Z,1013.92
2023-04-28T06:23:21.675Z,1013.93
2023-04-28T06:24:21.576Z,1013.87
2023-04-28T06:25:21.548Z,1013.90
2023-04-28T06:26:21.524Z,1013.87
2023-04-28T06:27:21.481Z,1013.86
2023-04-28T06:28:21.443Z,1013.84
2023-04-28T06:29:21.464Z,1013.81
2023-04-28T06:30:21.394Z,1013.82
2023-04-28T06:31:21.422Z,1013.86
2023-04-28T06:32:22.138Z,1013.83
2023-04-28T06:33:21.272Z,1013.80
2023-04-28T06:34:21.300Z,1013.79
2023-04-28T06:35:21.205Z,1013.81
2023-04-28T06:36:21.182Z,1013.74
2023-04-28T06:37:21.143Z,1013.79
2023-04-28T06:38:21.105Z,1013.75
2023-04-28T06:39:21.070Z,1013.80
2023-04-28T06:40:21.096Z,1013.77
2023-04-28T06:41:21.004Z,1013.77
2023-04-28T06:42:20.979Z,1013.78
2023-04-28T06:43:20.968Z,1013.82
2023-04-28T06:44:20.913Z,1013.74
2023-04-28T06:45:20.884Z,1013.73
2023-04-28T06:46:20.971Z,1013.66
2023-04-28T06:47:20.816Z,1013.64
2023-04-28T06:48:20.779Z,1013.64
2023-04-28T06:49:21.004Z,1013.66
2023-04-28T06:50:20.713Z,1013.62
2023-04-28T06:51:20.725Z,1013.64
2023-04-28T06:52:22.874Z,1013.60
2023-04-28T06:53:20.864Z,1013.64
2023-04-28T06:54:20.625Z,1013.59
2023-04-28T06:55:20.539Z,1013.64
2023-04-28T06:56:20.580Z,1013.60
2023-04-28T06:57:20.473Z,1013.59
2023-04-28T06:58:20.502Z,1013.58
2023-04-28T06:59:20.411Z,1013.57
2023-04-28T07:00:20.419Z,1013.57
2023-04-28T07:01:20.513Z,1013.53
2023-04-28T07:02:20.398Z,1013.55
2023-04-28T07:03:20.437Z,1013.59
2023-04-28T07:04:20.602Z,1013.54
2023-04-28T07:05:20.219Z,1013.59
2023-04-28T07:06:20.188Z,1013.54
2023-04-28T07:07:20.210Z,1013.52
2023-04-28T07:08:20.188Z,1013.52
2023-04-28T07:09:20.094Z,1013.54
2023-04-28T07:10:20.062Z,1013.39
2023-04-28T07:11:20.024Z,1013.34
2023-04-28T07:12:19.994Z,1013.46
2023-04-28T07:13:19.964Z,1013.48
2023-04-28T07:14:19.970Z,1013.40
2023-04-28T07:15:19.891Z,1013.35
2023-04-28T07:16:19.891Z,1013.29
2023-04-28T07:17:19.824Z,1013.35
2023-04-28T07:18:19.793Z,1013.29
2023-04-28T07:19:19.828Z,1013.28
2023-04-28T07:20:19.737Z,1013.28
2023-04-28T07:21:19.693Z,1013.31
2023-04-28T07:22:19.687Z,1013.26
2023-04-28T07:23:19.651Z,1013.13
2023-04-28T07:24:19.604Z,1013.22
2023-04-28T07:25:19.655Z,1013.20
2023-04-28T07:26:19.534Z,1013.19
2023-04-28T07:27:19.512Z,1013.15
2023-04-28T07:28:19.478Z,1013.16
2023-04-28T07:29:19.445Z,1013.17
2023-04-28T07:31:19.443Z,1013.18
2023-04-28T07:32:19.503Z,1013.17
2023-04-28T07:33:19.327Z,1013.16
2023-04-28T07:34:19.278Z,1013.16
2023-04-28T07:35:19.266Z,1013.17
2023-04-28T07:36:19.207Z,1013.19
2023-04-28T07:37:19.258Z,1013.18
2023-04-28T07:38:19.155Z,1013.16
2023-04-28T07:39:19.162Z,1013.18
2023-04-28T07:40:19.090Z,1013.19
2023-04-28T07:41:19.068Z,1013.14
2023-04-28T07:42:19.016Z,1013.15
2023-04-28T07:43:19.031Z,1013.16
2023-04-28T07:44:19.131Z,1013.16
2023-04-28T07:45:18.934Z,1013.18
2023-04-28T07:46:18.963Z,1013.21
2023-04-28T07:47:18.859Z,1013.23
2023-04-28T07:48:18.904Z,1013.16
2023-04-28T07:49:18.990Z,1013.16
2023-04-28T07:50:18.765Z,1013.19
2023-04-28T07:51:18.726Z,1013.17
2023-04-28T07:52:18.775Z,1013.18
2023-04-28T07:53:18.696Z,1013.09
2023-04-28T07:54:19.160Z,1013.17
2023-04-28T07:55:18.664Z,1013.12
2023-04-28T07:56:18.588Z,1013.09
2023-04-28T07:57:18.548Z,1013.10
2023-04-28T07:58:18.502Z,1013.14
2023-04-28T07:59:18.518Z,1013.12
2023-04-28T08:00:18.501Z,1013.06
2023-04-28T08:01:18.409Z,1013.10
2023-04-28T08:02:18.467Z,1013.08
2023-04-28T08:03:18.593Z,1013.08
2023-04-28T08:04:18.837Z,1013.07
2023-04-28T08:05:18.398Z,1013.10
2023-04-28T08:06:18.326Z,1013.07
2023-04-28T08:07:18.229Z,1013.03
2023-04-28T08:08:18.194Z,1013.06
2023-04-28T08:09:18.201Z,1013.05
2023-04-28T08:10:18.155Z,1013.00
2023-04-28T08:11:18.106Z,1012.95
2023-04-28T08:12:18.125Z,1012.99
2023-04-28T08:13:18.066Z,1013.03
2023-04-28T08:14:18.283Z,1012.98
2023-04-28T08:15:18.562Z,1012.92
2023-04-28T08:16:18.059Z,1012.97
2023-04-28T08:17:17.913Z,1012.91
2023-04-28T08:18:17.963Z,1012.93
2023-04-28T08:19:17.947Z,1012.89
2023-04-28T08:20:17.825Z,1012.93
2023-04-28T08:21:17.794Z,1012.93
2023-04-28T08:22:17.782Z,1012.88
2023-04-28T08:23:17.736Z,1012.88
2023-04-28T08:24:17.870Z,1012.87
2023-04-28T08:25:17.860Z,1012.88
2023-04-28T08:26:17.648Z,1012.87
2023-04-28T08:27:17.622Z,1012.86
2023-04-28T08:28:17.581Z,1012.84
2023-04-28T08:29:17.562Z,1012.79
2023-04-28T08:30:17.576Z,1012.90
2023-04-28T08:31:17.537Z,1012.83
2023-04-28T08:32:17.467Z,1012.85
2023-04-28T08:33:17.465Z,1012.81
2023-04-28T08:34:17.428Z,1012.79
2023-04-28T08:35:17.377Z,1012.83
2023-04-28T08:36:17.406Z,1012.78
2023-04-28T08:37:17.316Z,1012.77
2023-04-28T08:38:17.286Z,1012.75
2023-04-28T08:39:17.264Z,1012.74
2023-04-28T08:40:17.233Z,1012.71
2023-04-28T08:41:17.197Z,1012.69
2023-04-28T08:42:17.218Z,1012.75
2023-04-28T08:43:17.148Z,1012.74
2023-04-28T08:44:17.407Z,1012.74
2023-04-28T08:45:17.195Z,1012.75
2023-04-28T08:46:17.045Z,1012.67
2023-04-28T08:47:17.032Z,1012.71
2023-04-28T08:48:17.050Z,1012.68
2023-04-28T08:49:16.965Z,1012.69
2023-04-28T08:50:16.937Z,1012.65
2023-04-28T08:51:16.946Z,1012.57
2023-04-28T08:52:16.865Z,1012.62
2023-04-28T08:53:16.844Z,1012.61
2023-04-28T08:54:25.285Z,1012.56
2023-04-28T08:55:16.789Z,1012.55
2023-04-28T08:56:16.790Z,1012.57
2023-04-28T08:57:16.729Z,1012.54
2023-04-28T08:58:16.689Z,1012.54
2023-04-28T08:59:16.674Z,1012.52
2023-04-28T09:00:16.714Z,1012.55
2023-04-28T09:01:16.665Z,1012.48
2023-04-28T09:02:16.643Z,1012.52
2023-04-28T09:03:16.699Z,1012.47
2023-04-28T09:04:16.776Z,1012.50
2023-04-28T09:05:16.809Z,1012.49
2023-04-28T09:06:16.517Z,1012.50
2023-04-28T09:07:16.430Z,1012.50
2023-04-28T09:08:16.432Z,1012.46
2023-04-28T09:09:16.380Z,1012.47
2023-04-28T09:10:16.348Z,1012.49
2023-04-28T09:11:16.360Z,1012.52
2023-04-28T09:12:16.276Z,1012.47
2023-04-28T09:13:16.253Z,1012.46
2023-04-28T09:14:16.380Z,1012.41
2023-04-28T09:15:16.243Z,1012.41
2023-04-28T09:16:16.281Z,1012.47
2023-04-28T09:17:16.183Z,1012.43
2023-04-28T09:18:16.101Z,1012.38
2023-04-28T09:19:16.086Z,1012.37
2023-04-28T09:20:16.039Z,1012.35
2023-04-28T09:21:16.017Z,1012.37
2023-04-28T09:22:26.093Z,1012.37
2023-04-28T09:23:16.050Z,1012.34
2023-04-28T09:24:16.172Z,1012.30
2023-04-28T09:25:15.901Z,1012.31
2023-04-28T09:26:15.874Z,1012.34
2023-04-28T09:27:15.845Z,1012.33
2023-04-28T09:28:15.809Z,1012.33
2023-04-28T09:29:15.834Z,1012.33
2023-04-28T09:30:15.755Z,1012.33
2023-04-28T09:31:15.716Z,1012.25
2023-04-28T09:32:15.911Z,1012.23
2023-04-28T09:33:15.704Z,1012.24
2023-04-28T09:34:15.800Z,1012.30
2023-04-28T09:35:15.649Z,1012.25
2023-04-28T09:36:15.574Z,1012.20
2023-04-28T09:37:15.549Z,1012.26
2023-04-28T09:38:15.532Z,1012.27
2023-04-28T09:39:15.493Z,1012.29
2023-04-28T09:40:15.462Z,1012.24
2023-04-28T09:41:15.498Z,1012.22
2023-04-28T09:42:15.420Z,1012.21
2023-04-28T09:43:21.607Z,1012.21
2023-04-28T09:44:15.636Z,1012.18
2023-04-28T09:45:15.308Z,1012.17
2023-04-28T09:46:15.390Z,1012.18
2023-04-28T09:47:15.259Z,1012.14
2023-04-28T09:48:15.282Z,1012.11
2023-04-28T09:49:15.200Z,1012.05
2023-04-28T09:50:15.363Z,1012.07
2023-04-28T09:51:15.143Z,1012.11
2023-04-28T09:52:15.201Z,1012.12
2023-04-28T09:53:15.080Z,1012.11
2023-04-28T09:54:15.057Z,1012.15
2023-04-28T09:55:15.090Z,1012.07
2023-04-28T09:56:14.996Z,1012.02
2023-04-28T09:57:14.953Z,1012.02
2023-04-28T09:58:14.933Z,1011.96
2023-04-28T09:59:14.916Z,1012.04
2023-04-28T10:00:15.086Z,1011.99
2023-04-28T10:01:14.921Z,1012.01
2023-04-28T10:02:41.006Z,1012.02
2023-04-28T10:03:14.879Z,1011.94
2023-04-28T10:04:14.878Z,1011.96
2023-04-28T10:05:14.952Z,1011.98
2023-04-28T10:06:14.781Z,1011.95
2023-04-28T10:07:14.675Z,1012.00
2023-04-28T10:08:22.327Z,1011.99
2023-04-28T10:09:14.635Z,1011.93
2023-04-28T10:10:14.918Z,1011.94
2023-04-28T10:11:14.556Z,1011.91
2023-04-28T10:12:14.588Z,1011.89
2023-04-28T10:13:14.492Z,1011.90
2023-04-28T10:14:14.461Z,1011.96
2023-04-28T10:15:14.437Z,1011.89
2023-04-28T10:16:14.483Z,1011.91
2023-04-28T10:17:14.380Z,1011.88
2023-04-28T10:18:14.410Z,1011.87
2023-04-28T10:19:14.318Z,1011.82
2023-04-28T10:20:14.316Z,1011.77
2023-04-28T10:21:14.262Z,1011.76
2023-04-28T10:22:14.229Z,1011.77
2023-04-28T10:23:14.204Z,1011.81
2023-04-28T10:24:14.245Z,1011.80
2023-04-28T10:25:14.154Z,1011.82
2023-04-28T10:26:14.179Z,1011.78
2023-04-28T10:27:14.088Z,1011.84
2023-04-28T10:28:14.065Z,1011.78
2023-04-28T10:29:14.032Z,1011.77
2023-04-28T10:30:26.645Z,1011.71
2023-04-28T10:31:14.042Z,1011.75
2023-04-28T10:32:14.113Z,1011.74
2023-04-28T10:33:14.176Z,1011.68
2023-04-28T10:34:13.887Z,1011.65
2023-04-28T10:35:13.858Z,1011.63
2023-04-28T10:36:14.229Z,1011.67
2023-04-28T10:37:13.807Z,1011.59
2023-04-28T10:38:13.811Z,1011.62
2023-04-28T10:39:13.739Z,1011.59
2023-04-28T10:40:13.760Z,1011.58
2023-04-28T10:41:13.683Z,1011.58
2023-04-28T10:42:13.707Z,1011.55
2023-04-28T10:43:13.654Z,1011.50
2023-04-28T10:44:13.613Z,1011.54
2023-04-28T10:45:13.570Z,1011.54
2023-04-28T10:46:13.581Z,1011.51
2023-04-28T10:47:13.511Z,1011.54
2023-04-28T10:48:13.543Z,1011.53
2023-04-28T10:49:13.612Z,1011.56
2023-04-28T10:50:13.570Z,1011.51
2023-04-28T10:51:13.453Z,1011.48
2023-04-28T10:52:13.393Z,1011.47
2023-04-28T10:53:13.391Z,1011.45
2023-04-28T10:54:13.379Z,1011.51
2023-04-28T10:55:21.794Z,1011.43
2023-04-28T10:56:13.264Z,1011.45
2023-04-28T10:57:13.244Z,1011.43
2023-04-28T10:58:13.217Z,1011.40
2023-04-28T10:59:13.200Z,1011.43
2023-04-28T11:00:13.222Z,1011.43
2023-04-28T11:01:13.181Z,1011.44
2023-04-28T11:02:13.140Z,1011.39
2023-04-28T11:03:13.173Z,1011.39
2023-04-28T11:04:13.264Z,1011.37
2023-04-28T11:05:13.276Z,1011.34
2023-04-28T11:06:12.991Z,1011.32
2023-04-28T11:07:12.974Z,1011.33
2023-04-28T11:08:12.946Z,1011.33
2023-04-28T11:09:12.957Z,1011.38
2023-04-28T11:10:12.962Z,1011.43
2023-04-28T11:11:12.862Z,1011.43
2023-04-28T11:12:12.833Z,1011.42
2023-04-28T11:13:12.815Z,1011.41
2023-04-28T11:14:12.838Z,1011.39
2023-04-28T11:15:12.756Z,1011.42
2023-04-28T11:16:12.760Z,1011.40
2023-04-28T11:17:12.707Z,1011.40
2023-04-28T11:18:16.237Z,1011.39
2023-04-28T11:19:12.645Z,1011.39
2023-04-28T11:20:12.902Z,1011.39
2023-04-28T11:21:12.599Z,1011.39
2023-04-28T11:22:12.567Z,1011.37
2023-04-28T11:23:12.542Z,1011.34
2023-04-28T11:24:12.520Z,1011.34
2023-04-28T11:25:12.506Z,1011.32
2023-04-28T11:26:12.527Z,1011.32
2023-04-28T11:27:12.439Z,1011.35
2023-04-28T11:28:12.417Z,1011.30
2023-04-28T11:29:12.384Z,1011.37
2023-04-28T11:30:12.360Z,1011.30
2023-04-28T11:31:12.348Z,1011.32
2023-04-28T11:32:13.270Z,1011.29
2023-04-28T11:33:12.313Z,1011.24
2023-04-28T11:34:12.264Z,1011.24
2023-04-28T11:35:12.248Z,1011.24
2023-04-28T11:36:12.219Z,1011.14
2023-04-28T11:37:12.189Z,1011.23
2023-04-28T11:38:12.223Z,1011.29
2023-04-28T11:39:12.146Z,1011.29
2023-04-28T11:40:12.114Z,1011.30
2023-04-28T11:41:12.085Z,1011.28
2023-04-28T11:42:12.071Z,1011.29
2023-04-28T11:43:12.064Z,1011.24
2023-04-28T11:44:12.075Z,1011.21
2023-04-28T11:45:12.005Z,1011.23
2023-04-28T11:46:12.015Z,1011.17
2023-04-28T11:47:11.939Z,1011.21
2023-04-28T11:48:12.020Z,1011.19
2023-04-28T11:49:11.884Z,1011.20
2023-04-28T11:50:11.922Z,1011.15
2023-04-28T11:51:11.831Z,1011.11
2023-04-28T11:52:11.820Z,1011.13
2023-04-28T11:53:11.778Z,1011.17
2023-04-28T11:54:11.816Z,1011.20
2023-04-28T11:55:11.791Z,1011.15
2023-04-28T11:56:11.721Z,1011.19
2023-04-28T11:57:11.687Z,1011.13
2023-04-28T11:58:11.658Z,1011.13
2023-04-28T11:59:11.643Z,1011.13
2023-04-28T12:00:11.644Z,1011.08
2023-04-28T12:01:11.658Z,1011.06
2023-04-28T12:02:11.618Z,1011.03
2023-04-28T12:03:11.743Z,1011.04
2023-04-28T12:04:11.592Z,1011.01
2023-04-28T12:05:11.611Z,1011.02
2023-04-28T12:06:11.458Z,1010.95
2023-04-28T12:07:11.497Z,1010.92